createdAt,value
2022-10-04T00:01:45.255Z,3.17
2022-10-04T00:04:15.006Z,3.78
2022-10-04T00:07:02.891Z,3.25
2022-10-04T00:09:36.327Z,3.30
2022-10-04T00:12:03.994Z,3.30
2022-10-04T00:14:34.314Z,3.70
2022-10-04T00:17:02.972Z,3.80
2022-10-04T00:19:39.922Z,3.30
2022-10-04T00:22:10.347Z,3.20
2022-10-04T00:24:38.254Z,3.30
2022-10-04T00:27:19.097Z,3.50
2022-10-04T00:30:07.080Z,3.90
2022-10-04T00:32:40.700Z,3.83
2022-10-04T00:35:26.902Z,3.43
2022-10-04T00:38:16.716Z,3.10
2022-10-04T00:40:48.456Z,3.63
2022-10-04T00:43:20.054Z,3.60
2022-10-04T00:45:48.605Z,4.27
2022-10-04T00:48:21.953Z,3.28
2022-10-04T00:50:51.442Z,3.65
2022-10-04T00:53:36.409Z,4.03
2022-10-04T00:56:05.397Z,3.60
2022-10-04T00:58:37.287Z,4.05
2022-10-04T01:01:05.180Z,3.85
2022-10-04T01:03:38.140Z,4.20
2022-10-04T01:06:09.130Z,4.22
2022-10-04T01:08:55.755Z,3.92
2022-10-04T01:11:36.103Z,4.07
2022-10-04T01:14:09.539Z,4.00
2022-10-04T01:16:37.226Z,4.30
2022-10-04T01:19:26.314Z,4.07
2022-10-04T01:22:00.114Z,4.50
2022-10-04T01:24:28.073Z,4.35
2022-10-04T01:26:55.891Z,4.00
2022-10-04T01:29:27.186Z,4.57
2022-10-04T01:31:55.523Z,4.63
2022-10-04T01:34:24.277Z,4.32
2022-10-04T01:36:53.190Z,4.73
2022-10-04T01:39:21.431Z,4.00
2022-10-04T01:41:49.065Z,4.47
2022-10-04T01:44:37.350Z,4.57
2022-10-04T01:47:16.362Z,5.03
2022-10-04T01:49:44.787Z,4.57
2022-10-04T01:52:17.311Z,4.78
2022-10-04T01:54:47.117Z,4.25
2022-10-04T01:57:14.966Z,4.88
2022-10-04T01:59:45.188Z,4.82
2022-10-04T02:02:45.310Z,4.07
2022-10-04T02:05:13.856Z,4.30
2022-10-04T02:07:42.478Z,4.68
2022-10-04T02:10:11.154Z,3.90
2022-10-04T02:12:39.039Z,4.90
2022-10-04T02:15:08.243Z,4.75
2022-10-04T02:17:38.745Z,4.70
2022-10-04T02:20:10.347Z,4.68
2022-10-04T02:22:38.084Z,4.28
2022-10-04T02:25:06.021Z,3.47
2022-10-04T02:27:34.923Z,4.67
2022-10-04T02:30:06.146Z,4.30
2022-10-04T02:32:52.614Z,4.50
2022-10-04T02:35:20.473Z,3.97
2022-10-04T02:37:49.147Z,4.45
2022-10-04T02:40:21.211Z,4.05
2022-10-04T02:43:02.532Z,4.17
2022-10-04T02:45:34.061Z,4.35
2022-10-04T02:48:02.732Z,3.88
2022-10-04T02:50:56.822Z,3.80
2022-10-04T02:53:25.160Z,3.70
2022-10-04T02:55:53.270Z,3.85
2022-10-04T02:58:22.330Z,3.97
2022-10-04T03:00:51.461Z,3.80
2022-10-04T03:03:31.091Z,4.20
2022-10-04T03:06:01.840Z,3.58
2022-10-04T03:08:30.037Z,3.60
2022-10-04T03:10:59.834Z,3.88
2022-10-04T03:13:27.854Z,3.80
2022-10-04T03:15:55.756Z,3.83
2022-10-04T03:18:23.453Z,4.47
2022-10-04T03:20:51.155Z,4.20
2022-10-04T03:23:19.102Z,3.92
2022-10-04T03:25:50.145Z,3.90
2022-10-04T03:28:17.893Z,3.53
2022-10-04T03:30:45.808Z,3.65
2022-10-04T03:33:31.557Z,3.97
2022-10-04T03:36:00.732Z,3.53
2022-10-04T03:38:29.663Z,3.40
2022-10-04T03:41:00.809Z,3.67
2022-10-04T03:43:31.953Z,3.73
2022-10-04T03:46:00.046Z,4.00
2022-10-04T03:48:38.420Z,3.95
2022-10-04T03:51:06.535Z,4.30
2022-10-04T03:53:36.753Z,3.63
2022-10-04T03:56:09.368Z,4.40
2022-10-04T03:58:37.043Z,4.30
2022-10-04T04:01:14.761Z,4.00
2022-10-04T04:03:45.934Z,4.43
2022-10-04T04:06:15.909Z,4.18
2022-10-04T04:08:46.781Z,4.17
2022-10-04T04:11:19.971Z,4.43
2022-10-04T04:13:47.718Z,3.97
2022-10-04T04:16:16.426Z,4.40
2022-10-04T04:18:44.491Z,4.72
2022-10-04T04:21:13.269Z,4.57
2022-10-04T04:23:42.403Z,4.68
2022-10-04T04:26:19.968Z,4.72
2022-10-04T04:28:49.309Z,4.50
2022-10-04T04:31:24.428Z,4.13
2022-10-04T04:34:02.162Z,4.40
2022-10-04T04:36:30.525Z,4.43
2022-10-04T04:39:37.456Z,4.25
2022-10-04T04:42:11.217Z,4.53
2022-10-04T04:44:39.844Z,4.05
2022-10-04T04:47:09.324Z,4.53
2022-10-04T04:49:42.429Z,5.13
2022-10-04T04:52:14.875Z,5.07
2022-10-04T04:54:43.879Z,4.07
2022-10-04T04:57:11.610Z,4.75
2022-10-04T04:59:39.330Z,5.13
2022-10-04T05:02:07.077Z,4.20
2022-10-04T05:04:34.971Z,4.32
2022-10-04T05:07:04.151Z,4.53
2022-10-04T05:09:35.639Z,4.60
2022-10-04T05:12:07.926Z,4.88
2022-10-04T05:14:36.690Z,4.50
2022-10-04T05:17:04.471Z,4.85
2022-10-04T05:19:33.309Z,4.25
2022-10-04T05:22:04.094Z,4.40
2022-10-04T05:24:37.899Z,4.90
2022-10-04T05:27:10.164Z,4.90
2022-10-04T05:29:39.483Z,4.28
2022-10-04T05:32:10.277Z,4.60
2022-10-04T05:34:41.906Z,4.10
2022-10-04T05:37:20.649Z,4.50
2022-10-04T05:39:52.466Z,5.07
2022-10-04T05:42:24.248Z,4.28
2022-10-04T05:44:53.130Z,4.40
2022-10-04T05:47:24.158Z,4.18
2022-10-04T05:49:58.640Z,4.23
2022-10-04T05:52:26.272Z,5.22
2022-10-04T05:55:13.190Z,4.32
2022-10-04T05:57:44.011Z,4.40
2022-10-04T06:00:11.814Z,4.88
2022-10-04T06:02:51.580Z,4.78
2022-10-04T06:05:37.770Z,4.60
2022-10-04T06:08:08.447Z,4.53
2022-10-04T06:10:36.613Z,4.88
2022-10-04T06:13:06.215Z,4.38
2022-10-04T06:15:52.820Z,5.23
2022-10-04T06:18:20.551Z,5.03
2022-10-04T06:20:55.053Z,5.32
2022-10-04T06:23:22.852Z,4.70
2022-10-04T06:25:58.173Z,4.72
2022-10-04T06:28:33.162Z,4.03
2022-10-04T06:31:19.284Z,5.40
2022-10-04T06:33:47.123Z,5.45
2022-10-04T06:36:26.859Z,4.75
2022-10-04T06:39:04.400Z,4.45
2022-10-04T06:41:51.007Z,5.33
2022-10-04T06:44:24.616Z,5.78
2022-10-04T06:46:52.743Z,4.85
2022-10-04T06:49:39.177Z,4.83
2022-10-04T06:52:06.875Z,5.35
2022-10-04T06:54:53.082Z,4.95
2022-10-04T06:57:26.719Z,4.93
2022-10-04T06:59:54.448Z,4.93
2022-10-04T07:02:23.220Z,5.22
2022-10-04T07:05:07.430Z,4.25
2022-10-04T07:07:37.388Z,4.80
2022-10-04T07:10:05.237Z,4.68
2022-10-04T07:12:33.218Z,4.97
2022-10-04T07:15:01.654Z,5.47
2022-10-04T07:17:33.761Z,5.05
2022-10-04T07:20:01.558Z,5.40
2022-10-04T07:22:31.302Z,5.10
2022-10-04T07:24:59.112Z,5.57
2022-10-04T07:27:26.751Z,5.20
2022-10-04T07:29:57.713Z,4.80
2022-10-04T07:32:33.257Z,5.90
2022-10-04T07:35:03.355Z,5.68
2022-10-04T07:37:31.829Z,6.38
2022-10-04T07:40:02.723Z,6.07
2022-10-04T07:42:33.211Z,5.25
2022-10-04T07:45:04.091Z,5.05
2022-10-04T07:47:31.747Z,6.20
2022-10-04T07:49:59.691Z,4.30
2022-10-04T07:52:30.991Z,5.57
2022-10-04T07:55:02.324Z,5.90
2022-10-04T07:57:45.289Z,5.53
2022-10-04T08:00:23.417Z,5.18
2022-10-04T08:03:09.876Z,4.85
2022-10-04T08:05:42.935Z,5.33
2022-10-04T08:08:23.027Z,5.20
2022-10-04T08:10:59.492Z,5.55
2022-10-04T08:13:29.159Z,5.13
2022-10-04T08:15:59.798Z,4.90
2022-10-04T08:18:30.531Z,4.45
2022-10-04T08:21:01.631Z,5.00
2022-10-04T08:23:44.979Z,5.67
2022-10-04T08:26:18.680Z,4.85
2022-10-04T08:29:16.899Z,4.68
2022-10-04T08:32:07.137Z,5.07
2022-10-04T08:34:53.483Z,5.13
2022-10-04T08:37:39.722Z,5.15
2022-10-04T08:40:13.480Z,4.57
2022-10-04T08:42:50.583Z,4.35
2022-10-04T08:45:38.327Z,4.47
2022-10-04T08:48:18.425Z,4.53
2022-10-04T08:51:01.136Z,4.20
2022-10-04T08:53:35.428Z,4.15
2022-10-04T08:56:07.299Z,4.00
2022-10-04T08:58:34.946Z,4.90
2022-10-04T09:01:21.283Z,5.20
2022-10-04T09:04:07.627Z,5.65
2022-10-04T09:06:53.920Z,4.87
2022-10-04T09:09:44.576Z,4.68
2022-10-04T09:12:21.665Z,5.05
2022-10-04T09:15:08.443Z,3.95
2022-10-04T09:17:38.988Z,4.20
2022-10-04T09:20:33.436Z,3.95
2022-10-04T09:23:01.787Z,3.22
2022-10-04T09:25:42.354Z,3.80
2022-10-04T09:28:22.529Z,2.90
2022-10-04T09:30:54.195Z,3.90
2022-10-04T09:33:21.971Z,3.83
2022-10-04T09:36:08.007Z,3.58
2022-10-04T09:38:40.346Z,3.55
2022-10-04T09:41:14.377Z,3.55
2022-10-04T09:43:51.456Z,3.33
2022-10-04T09:46:41.782Z,3.70
2022-10-04T09:49:17.455Z,3.40
2022-10-04T09:51:51.246Z,3.90
2022-10-04T09:54:29.201Z,3.40
2022-10-04T09:57:15.147Z,2.60
2022-10-04T09:59:57.254Z,3.40
2022-10-04T10:02:30.874Z,3.17
2022-10-04T10:05:17.167Z,3.67
2022-10-04T10:07:55.639Z,3.95
2022-10-04T10:11:00.819Z,3.07
2022-10-04T10:13:40.494Z,3.50
2022-10-04T10:16:20.527Z,2.80
2022-10-04T10:18:52.965Z,3.30
2022-10-04T10:21:29.618Z,2.97
2022-10-04T10:24:05.692Z,2.70
2022-10-04T10:26:51.940Z,3.00
2022-10-04T10:29:23.633Z,2.75
2022-10-04T10:32:01.940Z,3.13
2022-10-04T10:34:52.418Z,2.88
2022-10-04T10:37:26.703Z,3.33
2022-10-04T10:39:54.424Z,3.00
2022-10-04T10:42:32.053Z,2.50
2022-10-04T10:45:02.591Z,2.73
2022-10-04T10:47:31.230Z,3.20
2022-10-04T10:49:58.911Z,3.63
2022-10-04T10:52:42.488Z,3.45
2022-10-04T10:55:10.335Z,3.17
2022-10-04T10:57:56.855Z,3.80
2022-10-04T11:00:25.794Z,3.53
2022-10-04T11:02:53.620Z,4.23
2022-10-04T11:05:40.175Z,3.78
2022-10-04T11:08:30.901Z,4.10
2022-10-04T11:11:07.521Z,4.30
2022-10-04T11:13:39.268Z,4.22
2022-10-04T11:16:13.421Z,3.95
2022-10-04T11:18:59.899Z,4.28
2022-10-04T11:21:46.293Z,4.57
2022-10-04T11:24:22.246Z,3.75
2022-10-04T11:27:08.775Z,4.15
2022-10-04T11:29:55.438Z,4.80
2022-10-04T11:32:26.345Z,3.95
2022-10-04T11:35:12.058Z,3.85
2022-10-04T11:37:41.615Z,4.17
2022-10-04T11:40:30.375Z,4.05
2022-10-04T11:43:01.269Z,3.90
2022-10-04T11:45:36.402Z,3.65
2022-10-04T11:48:16.798Z,4.40
2022-10-04T11:50:45.118Z,3.70
2022-10-04T11:53:15.571Z,3.97
2022-10-04T11:55:54.112Z,3.40
2022-10-04T11:58:30.265Z,3.50
2022-10-04T12:01:09.837Z,3.40
2022-10-04T12:03:56.398Z,3.43
2022-10-04T12:06:39.098Z,3.15
2022-10-04T12:09:18.745Z,3.05
2022-10-04T12:12:23.873Z,3.22
2022-10-04T12:15:04.406Z,2.90
2022-10-04T12:17:31.990Z,3.28
2022-10-04T12:20:19.923Z,3.47
2022-10-04T12:22:53.351Z,3.13
2022-10-04T12:25:30.396Z,3.28
2022-10-04T12:28:16.093Z,3.05
2022-10-04T12:30:46.921Z,3.20
2022-10-04T12:33:17.770Z,3.05
2022-10-04T12:35:57.652Z,3.15
2022-10-04T12:38:27.843Z,3.00
2022-10-04T12:41:07.585Z,3.10
2022-10-04T12:43:38.565Z,3.42
2022-10-04T12:46:06.699Z,3.30
2022-10-04T12:48:38.242Z,3.97
2022-10-04T12:51:18.222Z,3.20
2022-10-04T12:53:56.673Z,3.08
2022-10-04T12:56:38.776Z,2.97
2022-10-04T12:59:17.243Z,3.10
2022-10-04T13:02:03.957Z,3.25
2022-10-04T13:04:31.730Z,2.72
2022-10-04T13:07:18.690Z,3.13
2022-10-04T13:10:22.370Z,3.92
2022-10-04T13:13:05.636Z,3.50
2022-10-04T13:19:05.968Z,2.80
2022-10-04T13:21:43.080Z,3.13
2022-10-04T13:24:29.474Z,3.40
2022-10-04T13:26:57.133Z,3.10
2022-10-04T13:29:30.983Z,2.92
2022-10-04T13:32:00.710Z,3.00
2022-10-04T13:34:35.998Z,3.30
2022-10-04T13:37:20.623Z,2.80
2022-10-04T13:39:54.145Z,3.30
2022-10-04T13:42:21.891Z,3.27
2022-10-04T13:45:29.191Z,3.83
2022-10-04T13:48:02.622Z,3.80
2022-10-04T13:50:43.022Z,3.40
2022-10-04T13:53:53.158Z,2.90
2022-10-04T13:56:40.548Z,3.10
2022-10-04T13:59:19.083Z,3.42
2022-10-04T14:01:55.290Z,2.97
2022-10-04T14:04:42.362Z,2.97
2022-10-04T14:07:09.950Z,3.05
2022-10-04T14:09:48.734Z,3.00
2022-10-04T14:12:34.991Z,2.75
2022-10-04T14:15:04.537Z,2.60
2022-10-04T14:18:10.538Z,2.47
2022-10-04T14:20:56.827Z,2.63
2022-10-04T14:23:44.650Z,2.72
2022-10-04T14:26:28.453Z,2.30
2022-10-04T14:29:05.326Z,2.50
2022-10-04T14:31:48.184Z,2.72
2022-10-04T14:34:21.900Z,2.30
2022-10-04T14:37:10.731Z,2.67
2022-10-04T14:40:01.012Z,2.65
2022-10-04T14:42:37.936Z,2.70
2022-10-04T14:45:18.496Z,2.50
2022-10-04T14:48:04.852Z,2.40
2022-10-04T14:50:47.632Z,2.30
2022-10-04T14:53:18.099Z,2.15
2022-10-04T14:56:06.492Z,1.98
2022-10-04T14:58:42.421Z,2.40
2022-10-04T15:01:39.498Z,1.90
2022-10-04T15:04:14.100Z,2.53
2022-10-04T15:06:48.990Z,2.10
2022-10-04T15:09:17.837Z,2.17
2022-10-04T15:11:57.556Z,2.33
2022-10-04T15:14:39.914Z,2.20
2022-10-04T15:17:38.091Z,2.35
2022-10-04T15:20:06.498Z,2.50
2022-10-04T15:22:39.971Z,2.10
2022-10-04T15:25:26.583Z,2.40
2022-10-04T15:27:54.979Z,1.90
2022-10-04T15:30:22.990Z,1.83
2022-10-04T15:33:24.487Z,2.08
2022-10-04T15:35:58.446Z,2.13
2022-10-04T15:38:34.925Z,1.90
2022-10-04T15:41:23.920Z,2.00
2022-10-04T15:44:13.476Z,1.92
2022-10-04T15:46:41.462Z,2.03
2022-10-04T15:49:25.092Z,1.90
2022-10-04T15:52:04.825Z,1.98
2022-10-04T15:54:52.379Z,2.38
2022-10-04T15:57:22.901Z,2.40
2022-10-04T16:00:03.063Z,2.40
2022-10-04T16:02:47.354Z,2.00
2022-10-04T16:05:24.190Z,2.17
2022-10-04T16:08:02.211Z,1.90
2022-10-04T16:10:52.789Z,2.05
2022-10-04T16:13:31.244Z,2.42
2022-10-04T16:16:18.245Z,2.00
2022-10-04T16:19:08.377Z,2.30
2022-10-04T16:21:48.067Z,2.22
2022-10-04T16:24:21.545Z,2.00
2022-10-04T16:26:52.497Z,2.08
2022-10-04T16:29:32.226Z,2.30
2022-10-04T16:32:11.475Z,2.07
2022-10-04T16:34:42.958Z,2.10
2022-10-04T16:37:10.678Z,1.90
2022-10-04T16:40:06.130Z,2.17
2022-10-04T16:42:33.930Z,1.90
2022-10-04T16:45:21.671Z,1.95
2022-10-04T16:47:50.717Z,2.50
2022-10-04T16:50:38.359Z,1.87
2022-10-04T16:53:24.199Z,2.05
2022-10-04T16:56:02.363Z,1.80
2022-10-04T16:58:30.837Z,1.83
2022-10-04T17:01:18.524Z,1.88
2022-10-04T17:04:04.409Z,2.00
2022-10-04T17:06:33.252Z,1.77
2022-10-04T17:09:07.004Z,2.03
2022-10-04T17:11:38.769Z,2.10
2022-10-04T17:14:25.003Z,2.10
2022-10-04T17:16:58.621Z,1.90
2022-10-04T17:19:37.928Z,1.98
2022-10-04T17:22:16.199Z,2.47
2022-10-04T17:24:56.822Z,2.17
2022-10-04T17:27:28.770Z,2.08
2022-10-04T17:30:15.680Z,2.42
2022-10-04T17:32:58.569Z,2.42
2022-10-04T17:35:46.224Z,2.40
2022-10-04T17:38:43.180Z,2.47
2022-10-04T17:41:16.712Z,2.35
2022-10-04T17:43:56.333Z,2.70
2022-10-04T17:46:30.195Z,1.95
2022-10-04T17:49:19.201Z,2.25
2022-10-04T17:52:12.442Z,2.40
2022-10-04T17:55:06.037Z,2.97
2022-10-04T17:57:45.185Z,2.35
2022-10-04T18:00:13.798Z,2.37
2022-10-04T18:03:00.376Z,2.53
2022-10-04T18:05:31.040Z,2.35
2022-10-04T18:08:02.876Z,2.70
2022-10-04T18:10:34.661Z,2.60
2022-10-04T18:13:22.617Z,2.10
2022-10-04T18:15:50.460Z,2.25
2022-10-04T18:18:19.025Z,2.60
2022-10-04T18:21:07.679Z,2.08
2022-10-04T18:23:39.652Z,2.42
2022-10-04T18:26:11.564Z,2.63
2022-10-04T18:28:39.639Z,3.00
2022-10-04T18:31:25.944Z,2.40
2022-10-04T18:33:54.259Z,2.80
2022-10-04T18:36:29.791Z,2.33
2022-10-04T18:39:12.988Z,2.70
2022-10-04T18:41:53.009Z,2.20
2022-10-04T18:44:21.590Z,2.30
2022-10-04T18:46:51.359Z,2.65
2022-10-04T18:49:21.206Z,2.75
2022-10-04T18:52:07.475Z,2.50
2022-10-04T18:54:54.168Z,2.63
2022-10-04T18:57:28.068Z,3.38
2022-10-04T19:00:14.605Z,2.30
2022-10-04T19:02:48.261Z,2.80
2022-10-04T19:05:18.842Z,2.17
2022-10-04T19:07:55.763Z,2.53
2022-10-04T19:10:26.117Z,2.87
2022-10-04T19:12:57.971Z,2.40
2022-10-04T19:15:44.423Z,2.45
2022-10-04T19:18:18.237Z,2.78
2022-10-04T19:20:56.187Z,2.38
2022-10-04T19:23:27.264Z,2.70
2022-10-04T19:26:31.221Z,3.08
2022-10-04T19:29:19.021Z,2.93
2022-10-04T19:31:52.682Z,2.80
2022-10-04T19:34:21.697Z,2.78
2022-10-04T19:37:09.334Z,2.70
2022-10-04T19:39:52.254Z,2.33
2022-10-04T19:42:22.488Z,2.90
2022-10-04T19:44:53.052Z,3.20
2022-10-04T19:47:23.777Z,3.00
2022-10-04T19:50:03.443Z,2.72
2022-10-04T19:52:37.272Z,3.60
2022-10-04T19:55:27.541Z,3.10
2022-10-04T19:58:04.315Z,3.35
2022-10-04T20:00:33.224Z,3.30
2022-10-04T20:03:01.085Z,3.13
2022-10-04T20:05:28.895Z,3.17
2022-10-04T20:07:57.614Z,3.10
2022-10-04T20:10:35.783Z,3.05
2022-10-04T20:13:08.831Z,2.80
2022-10-04T20:15:37.899Z,3.10
2022-10-04T20:18:25.644Z,3.70
2022-10-04T20:20:57.137Z,3.50
2022-10-04T20:23:37.199Z,3.83
2022-10-04T20:26:08.397Z,3.83
2022-10-04T20:28:40.294Z,3.67
2022-10-04T20:31:11.720Z,3.88
2022-10-04T20:33:49.200Z,3.72
2022-10-04T20:36:19.942Z,4.23
2022-10-04T20:38:54.699Z,4.28
2022-10-04T20:41:51.335Z,4.28
2022-10-04T20:44:37.978Z,3.85
2022-10-04T20:47:05.691Z,4.63
2022-10-04T20:49:33.470Z,4.05
2022-10-04T20:52:01.110Z,4.20
2022-10-04T20:54:29.699Z,4.63
2022-10-04T20:56:57.873Z,3.90
2022-10-04T20:59:25.675Z,4.05
2022-10-04T21:02:05.337Z,4.63
2022-10-04T21:04:34.633Z,3.85
2022-10-04T21:07:06.171Z,4.40
2022-10-04T21:09:34.314Z,4.13
2022-10-04T21:12:02.121Z,3.50
2022-10-04T21:14:29.850Z,4.45
2022-10-04T21:17:02.335Z,4.05
2022-10-04T21:19:36.299Z,5.00
2022-10-04T21:22:04.835Z,4.65
2022-10-04T21:24:36.026Z,4.47
2022-10-04T21:27:03.827Z,4.33
2022-10-04T21:29:31.712Z,4.93
2022-10-04T21:31:59.720Z,4.40
2022-10-04T21:34:51.486Z,4.80
2022-10-04T21:37:15.764Z,3.80
2022-10-04T21:39:43.540Z,4.40
2022-10-04T21:42:11.421Z,4.95
2022-10-04T21:44:39.158Z,4.30
2022-10-04T21:47:06.940Z,4.45
2022-10-04T21:49:34.742Z,4.03
2022-10-04T21:52:02.535Z,4.00
2022-10-04T21:54:30.195Z,4.43
2022-10-04T21:56:57.975Z,3.42
2022-10-04T21:59:25.765Z,4.20
2022-10-04T22:01:53.633Z,4.50
2022-10-04T22:04:21.308Z,5.15
2022-10-04T22:06:49.417Z,4.75
2022-10-04T22:09:17.358Z,4.13
2022-10-04T22:11:45.105Z,4.20
2022-10-04T22:14:12.890Z,4.40
2022-10-04T22:16:40.660Z,4.30
2022-10-04T22:19:08.467Z,4.82
2022-10-04T22:21:36.123Z,4.38
2022-10-04T22:24:04.335Z,5.03
2022-10-04T22:26:32.569Z,4.50
2022-10-04T22:29:00.342Z,4.72
2022-10-04T22:31:28.763Z,4.68
2022-10-04T22:33:56.680Z,5.10
2022-10-04T22:36:25.267Z,5.13
2022-10-04T22:38:59.750Z,4.80
2022-10-04T22:41:28.085Z,4.93
2022-10-04T22:43:57.479Z,3.92
2022-10-04T22:46:25.650Z,4.05
2022-10-04T22:48:53.569Z,4.35
2022-10-04T22:51:21.237Z,4.27
2022-10-04T22:53:49.045Z,4.57
2022-10-04T22:56:16.752Z,4.05
2022-10-04T22:58:44.494Z,5.00
2022-10-04T23:01:15.821Z,4.60
2022-10-04T23:03:47.308Z,4.70
2022-10-04T23:06:16.421Z,4.53
2022-10-04T23:08:44.183Z,4.03
2022-10-04T23:11:12.063Z,4.40
2022-10-04T23:13:39.938Z,3.90
2022-10-04T23:16:11.956Z,3.80
2022-10-04T23:18:39.920Z,4.57
2022-10-04T23:21:13.459Z,4.60
2022-10-04T23:23:41.203Z,3.67
2022-10-04T23:26:22.962Z,4.28
2022-10-04T23:28:51.382Z,4.65
2022-10-04T23:31:25.445Z,4.10
2022-10-04T23:33:53.620Z,4.32
2022-10-04T23:36:21.298Z,4.40
2022-10-04T23:38:54.523Z,5.00
2022-10-04T23:41:22.186Z,4.03
2022-10-04T23:43:49.975Z,5.00
2022-10-04T23:46:18.950Z,4.57
2022-10-04T23:48:46.773Z,5.00
2022-10-04T23:51:16.742Z,4.60
2022-10-04T23:53:44.531Z,5.03
2022-10-04T23:56:22.500Z,4.57
2022-10-04T23:58:50.386Z,4.60
